sensor_id;sensor_type;location;lat;lon;timestamp;temperature;humidity
13610;DHT22;6876;50.788;4.940;2023-05-29T00:02:22;15.50;99.90
13610;DHT22;6876;50.788;4.940;2023-05-29T00:05:09;15.30;1.00
13610;DHT22;6876;50.788;4.940;2023-05-29T00:07:59;15.30;99.90
13610;DHT22;6876;50.788;4.940;2023-05-29T00:10:46;15.20;1.00
13610;DHT22;6876;50.788;4.940;2023-05-29T00:13:33;15.20;1.00
13610;DHT22;6876;50.788;4.940;2023-05-29T00:16:20;15.20;1.00
13610;DHT22;6876;50.788;4.940;2023-05-29T00:19:09;15.10;1.00
13610;DHT22;6876;50.788;4.940;2023-05-29T00:21:56;15.00;1.00
13610;DHT22;6876;50.788;4.940;2023-05-29T00:24:45;15.00;1.00
13610;DHT22;6876;50.788;4.940;2023-05-29T00:27:32;15.00;1.00
13610;DHT22;6876;50.788;4.940;2023-05-29T00:30:19;15.00;1.00
13610;DHT22;6876;50.788;4.940;2023-05-29T00:33:06;14.90;1.00
13610;DHT22;6876;50.788;4.940;2023-05-29T00:35:54;14.80;99.90
13610;DHT22;6876;50.788;4.940;2023-05-29T00:38:41;14.80;1.00
13610;DHT22;6876;50.788;4.940;2023-05-29T00:41:30;14.70;60.60
13610;DHT22;6876;50.788;4.940;2023-05-29T00:44:17;14.70;5.00
13610;DHT22;6876;50.788;4.940;2023-05-29T00:47:05;14.60;99.90
13610;DHT22;6876;50.788;4.940;2023-05-29T00:49:53;14.60;99.90
13610;DHT22;6876;50.788;4.940;2023-05-29T00:52:41;14.50;99.90
13610;DHT22;6876;50.788;4.940;2023-05-29T00:55:30;14.50;1.00
13610;DHT22;6876;50.788;4.940;2023-05-29T00:58:19;14.40;1.00
13610;DHT22;6876;50.788;4.940;2023-05-29T01:01:07;14.40;73.90
13610;DHT22;6876;50.788;4.940;2023-05-29T01:03:55;14.40;99.90
13610;DHT22;6876;50.788;4.940;2023-05-29T01:06:44;14.40;99.90
13610;DHT22;6876;50.788;4.940;2023-05-29T01:09:31;14.40;99.90
13610;DHT22;6876;50.788;4.940;2023-05-29T01:12:29;14.30;1.00
13610;DHT22;6876;50.788;4.940;2023-05-29T01:15:32;14.30;1.00
13610;DHT22;6876;50.788;4.940;2023-05-29T01:18:26;14.30;58.80
13610;DHT22;6876;50.788;4.940;2023-05-29T01:21:20;14.20;99.90
13610;DHT22;6876;50.788;4.940;2023-05-29T01:24:15;14.20;99.90
13610;DHT22;6876;50.788;4.940;2023-05-29T01:27:10;14.10;99.90
13610;DHT22;6876;50.788;4.940;2023-05-29T01:29:57;14.00;1.00
13610;DHT22;6876;50.788;4.940;2023-05-29T01:32:46;14.00;87.70
13610;DHT22;6876;50.788;4.940;2023-05-29T01:35:33;14.00;1.00
13610;DHT22;6876;50.788;4.940;2023-05-29T01:38:21;13.90;1.00
13610;DHT22;6876;50.788;4.940;2023-05-29T01:41:08;13.80;99.90
13610;DHT22;6876;50.788;4.940;2023-05-29T01:43:57;13.80;99.90
13610;DHT22;6876;50.788;4.940;2023-05-29T01:46:45;13.70;1.00
13610;DHT22;6876;50.788;4.940;2023-05-29T01:49:33;13.70;1.00
13610;DHT22;6876;50.788;4.940;2023-05-29T01:52:21;13.70;1.00
13610;DHT22;6876;50.788;4.940;2023-05-29T01:55:09;13.70;97.40
13610;DHT22;6876;50.788;4.940;2023-05-29T01:57:57;13.60;1.00
13610;DHT22;6876;50.788;4.940;2023-05-29T02:00:45;13.50;1.00
13610;DHT22;6876;50.788;4.940;2023-05-29T02:03:33;13.40;99.90
13610;DHT22;6876;50.788;4.940;2023-05-29T02:06:21;13.30;1.00
13610;DHT22;6876;50.788;4.940;2023-05-29T02:09:08;13.30;99.90
13610;DHT22;6876;50.788;4.940;2023-05-29T02:11:55;13.20;99.90
13610;DHT22;6876;50.788;4.940;2023-05-29T02:14:42;13.20;1.00
13610;DHT22;6876;50.788;4.940;2023-05-29T02:17:31;13.10;1.00
13610;DHT22;6876;50.788;4.940;2023-05-29T02:20:19;13.10;1.00
13610;DHT22;6876;50.788;4.940;2023-05-29T02:23:08;13.00;95.70
13610;DHT22;6876;50.788;4.940;2023-05-29T02:25:55;13.00;99.90
13610;DHT22;6876;50.788;4.940;2023-05-29T02:28:43;13.00;99.90
13610;DHT22;6876;50.788;4.940;2023-05-29T02:31:30;12.90;99.90
13610;DHT22;6876;50.788;4.940;2023-05-29T02:34:18;12.90;99.90
13610;DHT22;6876;50.788;4.940;2023-05-29T02:37:08;12.90;99.90
13610;DHT22;6876;50.788;4.940;2023-05-29T02:39:56;12.90;99.90
13610;DHT22;6876;50.788;4.940;2023-05-29T02:42:43;12.80;99.90
13610;DHT22;6876;50.788;4.940;2023-05-29T02:45:30;12.80;99.90
13610;DHT22;6876;50.788;4.940;2023-05-29T02:48:17;12.70;99.90
13610;DHT22;6876;50.788;4.940;2023-05-29T02:51:06;12.70;99.90
13610;DHT22;6876;50.788;4.940;2023-05-29T02:53:54;12.70;99.90
13610;DHT22;6876;50.788;4.940;2023-05-29T02:56:41;12.70;99.90
13610;DHT22;6876;50.788;4.940;2023-05-29T02:59:28;12.70;99.90
13610;DHT22;6876;50.788;4.940;2023-05-29T03:02:18;12.70;99.90
13610;DHT22;6876;50.788;4.940;2023-05-29T03:05:05;12.50;1.00
13610;DHT22;6876;50.788;4.940;2023-05-29T03:07:54;12.50;99.90
13610;DHT22;6876;50.788;4.940;2023-05-29T03:10:42;12.50;1.00
13610;DHT22;6876;50.788;4.940;2023-05-29T03:13:30;12.40;1.00
13610;DHT22;6876;50.788;4.940;2023-05-29T03:16:20;12.30;1.00
13610;DHT22;6876;50.788;4.940;2023-05-29T03:19:08;12.30;1.00
13610;DHT22;6876;50.788;4.940;2023-05-29T03:21:55;12.30;1.00
13610;DHT22;6876;50.788;4.940;2023-05-29T03:24:44;12.20;1.00
13610;DHT22;6876;50.788;4.940;2023-05-29T03:27:31;12.20;1.00
13610;DHT22;6876;50.788;4.940;2023-05-29T03:30:18;12.20;1.00
13610;DHT22;6876;50.788;4.940;2023-05-29T03:33:06;12.10;1.00
13610;DHT22;6876;50.788;4.940;2023-05-29T03:35:53;12.10;1.00
13610;DHT22;6876;50.788;4.940;2023-05-29T03:38:41;12.00;1.00
13610;DHT22;6876;50.788;4.940;2023-05-29T03:41:29;11.90;1.00
13610;DHT22;6876;50.788;4.940;2023-05-29T03:44:17;12.00;1.00
13610;DHT22;6876;50.788;4.940;2023-05-29T03:47:04;11.90;99.90
13610;DHT22;6876;50.788;4.940;2023-05-29T03:49:52;12.00;99.90
13610;DHT22;6876;50.788;4.940;2023-05-29T03:52:39;11.90;99.90
13610;DHT22;6876;50.788;4.940;2023-05-29T03:55:26;11.80;99.90
13610;DHT22;6876;50.788;4.940;2023-05-29T03:58:15;11.90;99.90
13610;DHT22;6876;50.788;4.940;2023-05-29T04:01:02;11.90;99.90
13610;DHT22;6876;50.788;4.940;2023-05-29T04:03:49;11.90;24.30
13610;DHT22;6876;50.788;4.940;2023-05-29T04:06:37;11.80;1.00
13610;DHT22;6876;50.788;4.940;2023-05-29T04:09:24;11.80;1.00
13610;DHT22;6876;50.788;4.940;2023-05-29T04:12:11;11.90;99.90
13610;DHT22;6876;50.788;4.940;2023-05-29T04:15:00;11.90;1.00
13610;DHT22;6876;50.788;4.940;2023-05-29T04:17:48;12.00;99.90
13610;DHT22;6876;50.788;4.940;2023-05-29T04:20:35;12.00;1.00
13610;DHT22;6876;50.788;4.940;2023-05-29T04:23:22;12.00;99.90
13610;DHT22;6876;50.788;4.940;2023-05-29T04:26:09;12.10;1.00
13610;DHT22;6876;50.788;4.940;2023-05-29T04:28:58;12.10;38.10
13610;DHT22;6876;50.788;4.940;2023-05-29T04:31:47;12.10;99.90
13610;DHT22;6876;50.788;4.940;2023-05-29T04:34:37;12.30;1.00
13610;DHT22;6876;50.788;4.940;2023-05-29T04:37:25;12.80;99.90
13610;DHT22;6876;50.788;4.940;2023-05-29T04:40:15;13.30;1.00
13610;DHT22;6876;50.788;4.940;2023-05-29T04:43:03;13.80;99.90
13610;DHT22;6876;50.788;4.940;2023-05-29T04:45:51;14.30;1.00
13610;DHT22;6876;50.788;4.940;2023-05-29T04:48:40;14.40;99.90
13610;DHT22;6876;50.788;4.940;2023-05-29T04:51:29;14.80;99.90
13610;DHT22;6876;50.788;4.940;2023-05-29T04:54:17;15.20;99.90
13610;DHT22;6876;50.788;4.940;2023-05-29T04:57:05;15.20;99.90
13610;DHT22;6876;50.788;4.940;2023-05-29T04:59:52;15.60;9.70
13610;DHT22;6876;50.788;4.940;2023-05-29T05:02:41;15.80;1.00
13610;DHT22;6876;50.788;4.940;2023-05-29T05:05:31;16.20;1.00
13610;DHT22;6876;50.788;4.940;2023-05-29T05:08:19;16.50;1.00
13610;DHT22;6876;50.788;4.940;2023-05-29T05:11:06;16.70;1.00
13610;DHT22;6876;50.788;4.940;2023-05-29T05:13:53;16.80;1.00
13610;DHT22;6876;50.788;4.940;2023-05-29T05:16:40;16.90;1.00
13610;DHT22;6876;50.788;4.940;2023-05-29T05:19:28;17.00;1.00
13610;DHT22;6876;50.788;4.940;2023-05-29T05:22:16;17.10;1.00
13610;DHT22;6876;50.788;4.940;2023-05-29T05:25:04;16.90;1.00
13610;DHT22;6876;50.788;4.940;2023-05-29T05:27:51;17.20;99.90
13610;DHT22;6876;50.788;4.940;2023-05-29T05:30:39;17.30;99.90
13610;DHT22;6876;50.788;4.940;2023-05-29T05:33:26;17.50;99.90
13610;DHT22;6876;50.788;4.940;2023-05-29T05:36:14;17.40;99.90
13610;DHT22;6876;50.788;4.940;2023-05-29T05:39:03;17.60;99.90
13610;DHT22;6876;50.788;4.940;2023-05-29T05:41:51;18.10;99.90
13610;DHT22;6876;50.788;4.940;2023-05-29T05:44:38;18.50;99.90
13610;DHT22;6876;50.788;4.940;2023-05-29T05:47:25;18.30;99.90
13610;DHT22;6876;50.788;4.940;2023-05-29T05:50:13;17.90;99.90
13610;DHT22;6876;50.788;4.940;2023-05-29T05:53:01;17.90;99.90
13610;DHT22;6876;50.788;4.940;2023-05-29T05:55:49;17.90;99.90
13610;DHT22;6876;50.788;4.940;2023-05-29T05:58:37;18.20;99.90
13610;DHT22;6876;50.788;4.940;2023-05-29T06:01:24;18.30;99.90
13610;DHT22;6876;50.788;4.940;2023-05-29T06:04:11;18.20;99.90
13610;DHT22;6876;50.788;4.940;2023-05-29T06:06:59;18.40;99.90
13610;DHT22;6876;50.788;4.940;2023-05-29T06:09:46;18.40;99.90
13610;DHT22;6876;50.788;4.940;2023-05-29T06:12:35;18.70;99.90
13610;DHT22;6876;50.788;4.940;2023-05-29T06:15:22;19.10;99.90
13610;DHT22;6876;50.788;4.940;2023-05-29T06:18:09;19.20;99.90
13610;DHT22;6876;50.788;4.940;2023-05-29T06:20:56;19.80;99.90
13610;DHT22;6876;50.788;4.940;2023-05-29T06:23:43;20.50;99.90
13610;DHT22;6876;50.788;4.940;2023-05-29T06:26:31;20.00;99.90
13610;DHT22;6876;50.788;4.940;2023-05-29T06:29:19;20.10;99.90
13610;DHT22;6876;50.788;4.940;2023-05-29T06:32:07;20.70;99.90
13610;DHT22;6876;50.788;4.940;2023-05-29T06:34:54;20.90;99.90
13610;DHT22;6876;50.788;4.940;2023-05-29T06:37:41;20.90;99.90
13610;DHT22;6876;50.788;4.940;2023-05-29T06:40:29;20.90;99.90
13610;DHT22;6876;50.788;4.940;2023-05-29T06:43:20;21.10;99.90
13610;DHT22;6876;50.788;4.940;2023-05-29T06:46:09;21.00;99.90
13610;DHT22;6876;50.788;4.940;2023-05-29T06:48:56;20.50;99.90
13610;DHT22;6876;50.788;4.940;2023-05-29T06:51:44;20.40;99.90
13610;DHT22;6876;50.788;4.940;2023-05-29T06:54:31;20.70;99.90
13610;DHT22;6876;50.788;4.940;2023-05-29T06:57:22;20.90;99.90
13610;DHT22;6876;50.788;4.940;2023-05-29T07:00:13;21.50;99.90
13610;DHT22;6876;50.788;4.940;2023-05-29T07:03:03;21.30;99.90
13610;DHT22;6876;50.788;4.940;2023-05-29T07:05:50;20.80;99.90
13610;DHT22;6876;50.788;4.940;2023-05-29T07:08:37;21.50;99.90
13610;DHT22;6876;50.788;4.940;2023-05-29T07:11:24;21.40;99.90
13610;DHT22;6876;50.788;4.940;2023-05-29T07:14:13;21.50;99.90
13610;DHT22;6876;50.788;4.940;2023-05-29T07:17:01;21.50;99.90
13610;DHT22;6876;50.788;4.940;2023-05-29T07:19:50;21.90;99.90
13610;DHT22;6876;50.788;4.940;2023-05-29T07:22:37;21.50;99.90
13610;DHT22;6876;50.788;4.940;2023-05-29T07:25:25;21.20;99.90
13610;DHT22;6876;50.788;4.940;2023-05-29T07:28:12;21.60;99.90
13610;DHT22;6876;50.788;4.940;2023-05-29T07:30:59;21.20;99.90
13610;DHT22;6876;50.788;4.940;2023-05-29T07:33:46;21.30;99.90
13610;DHT22;6876;50.788;4.940;2023-05-29T07:36:36;21.80;99.90
13610;DHT22;6876;50.788;4.940;2023-05-29T07:39:23;21.90;99.90
13610;DHT22;6876;50.788;4.940;2023-05-29T07:42:11;22.20;99.90
13610;DHT22;6876;50.788;4.940;2023-05-29T07:44:58;21.90;99.90
13610;DHT22;6876;50.788;4.940;2023-05-29T07:47:45;22.20;99.90
13610;DHT22;6876;50.788;4.940;2023-05-29T07:50:33;22.60;99.90
13610;DHT22;6876;50.788;4.940;2023-05-29T07:53:22;22.40;65.60
13610;DHT22;6876;50.788;4.940;2023-05-29T07:56:09;22.30;55.90
13610;DHT22;6876;50.788;4.940;2023-05-29T07:58:57;22.50;65.90
13610;DHT22;6876;50.788;4.940;2023-05-29T08:01:45;22.70;58.90
13610;DHT22;6876;50.788;4.940;2023-05-29T08:04:33;23.00;51.00
13610;DHT22;6876;50.788;4.940;2023-05-29T08:07:22;22.70;50.10
13610;DHT22;6876;50.788;4.940;2023-05-29T08:10:11;22.90;49.90
13610;DHT22;6876;50.788;4.940;2023-05-29T08:12:58;23.10;49.00
13610;DHT22;6876;50.788;4.940;2023-05-29T08:15:46;23.60;75.70
13610;DHT22;6876;50.788;4.940;2023-05-29T08:18:33;24.10;50.50
13610;DHT22;6876;50.788;4.940;2023-05-29T08:21:21;24.60;49.30
13610;DHT22;6876;50.788;4.940;2023-05-29T08:24:08;24.80;50.10
13610;DHT22;6876;50.788;4.940;2023-05-29T08:26:57;24.30;50.80
13610;DHT22;6876;50.788;4.940;2023-05-29T08:29:44;24.10;50.00
13610;DHT22;6876;50.788;4.940;2023-05-29T08:32:31;24.10;52.00
13610;DHT22;6876;50.788;4.940;2023-05-29T08:35:19;24.40;80.90
13610;DHT22;6876;50.788;4.940;2023-05-29T08:38:06;24.40;50.70
13610;DHT22;6876;50.788;4.940;2023-05-29T08:40:54;24.10;52.20
13610;DHT22;6876;50.788;4.940;2023-05-29T08:43:44;24.50;51.00
13610;DHT22;6876;50.788;4.940;2023-05-29T08:46:33;24.70;50.80
13610;DHT22;6876;50.788;4.940;2023-05-29T08:49:21;24.60;52.50
13610;DHT22;6876;50.788;4.940;2023-05-29T08:52:12;25.50;49.90
13610;DHT22;6876;50.788;4.940;2023-05-29T08:55:01;25.10;50.80
13610;DHT22;6876;50.788;4.940;2023-05-29T08:57:48;25.30;50.70
13610;DHT22;6876;50.788;4.940;2023-05-29T09:00:38;24.80;52.30
13610;DHT22;6876;50.788;4.940;2023-05-29T09:03:26;24.80;76.50
13610;DHT22;6876;50.788;4.940;2023-05-29T09:06:14;24.00;49.40
13610;DHT22;6876;50.788;4.940;2023-05-29T09:09:03;23.80;51.30
13610;DHT22;6876;50.788;4.940;2023-05-29T09:11:51;24.20;51.40
13610;DHT22;6876;50.788;4.940;2023-05-29T09:14:41;24.00;50.50
13610;DHT22;6876;50.788;4.940;2023-05-29T09:17:32;23.70;49.50
13610;DHT22;6876;50.788;4.940;2023-05-29T09:20:20;24.70;50.50
13610;DHT22;6876;50.788;4.940;2023-05-29T09:23:10;24.80;50.80
13610;DHT22;6876;50.788;4.940;2023-05-29T09:25:57;25.00;76.00
13610;DHT22;6876;50.788;4.940;2023-05-29T09:28:45;25.10;50.20
13610;DHT22;6876;50.788;4.940;2023-05-29T09:31:38;24.40;50.90
13610;DHT22;6876;50.788;4.940;2023-05-29T09:34:31;24.40;77.90
13610;DHT22;6876;50.788;4.940;2023-05-29T09:37:18;24.50;76.50
13610;DHT22;6876;50.788;4.940;2023-05-29T09:40:11;24.70;50.50
13610;DHT22;6876;50.788;4.940;2023-05-29T09:43:02;25.10;76.50
13610;DHT22;6876;50.788;4.940;2023-05-29T09:45:51;24.40;51.80
13610;DHT22;6876;50.788;4.940;2023-05-29T09:48:38;24.40;51.20
13610;DHT22;6876;50.788;4.940;2023-05-29T09:51:27;24.40;51.80
13610;DHT22;6876;50.788;4.940;2023-05-29T09:54:15;24.50;51.60
13610;DHT22;6876;50.788;4.940;2023-05-29T09:57:03;24.40;50.50
13610;DHT22;6876;50.788;4.940;2023-05-29T09:59:53;24.10;50.80
13610;DHT22;6876;50.788;4.940;2023-05-29T10:02:40;24.10;51.10
13610;DHT22;6876;50.788;4.940;2023-05-29T10:05:27;24.20;51.50
13610;DHT22;6876;50.788;4.940;2023-05-29T10:08:18;24.50;52.40
13610;DHT22;6876;50.788;4.940;2023-05-29T10:11:05;24.60;80.30
13610;DHT22;6876;50.788;4.940;2023-05-29T10:13:57;24.50;52.70
13610;DHT22;6876;50.788;4.940;2023-05-29T10:16:46;24.50;51.70
13610;DHT22;6876;50.788;4.940;2023-05-29T10:19:36;24.40;52.50
13610;DHT22;6876;50.788;4.940;2023-05-29T10:22:25;24.10;52.00
13610;DHT22;6876;50.788;4.940;2023-05-29T10:25:18;24.00;51.50
13610;DHT22;6876;50.788;4.940;2023-05-29T10:28:06;23.80;52.10
13610;DHT22;6876;50.788;4.940;2023-05-29T10:30:55;23.80;51.60
13610;DHT22;6876;50.788;4.940;2023-05-29T10:33:54;23.60;51.80
13610;DHT22;6876;50.788;4.940;2023-05-29T10:36:49;23.50;51.10
13610;DHT22;6876;50.788;4.940;2023-05-29T10:39:37;23.50;50.90
13610;DHT22;6876;50.788;4.940;2023-05-29T10:42:45;23.30;52.80
13610;DHT22;6876;50.788;4.940;2023-05-29T10:45:49;23.70;51.20
13610;DHT22;6876;50.788;4.940;2023-05-29T10:48:41;23.50;50.50
13610;DHT22;6876;50.788;4.940;2023-05-29T10:51:29;23.40;51.80
13610;DHT22;6876;50.788;4.940;2023-05-29T10:54:21;23.80;52.60
13610;DHT22;6876;50.788;4.940;2023-05-29T10:57:08;23.60;51.30
13610;DHT22;6876;50.788;4.940;2023-05-29T11:00:03;23.70;52.00
13610;DHT22;6876;50.788;4.940;2023-05-29T11:03:02;23.50;76.50
13610;DHT22;6876;50.788;4.940;2023-05-29T11:05:56;23.20;51.30
13610;DHT22;6876;50.788;4.940;2023-05-29T11:08:45;23.50;49.90
13610;DHT22;6876;50.788;4.940;2023-05-29T11:11:33;23.60;76.70
13610;DHT22;6876;50.788;4.940;2023-05-29T11:14:22;23.60;42.40
13610;DHT22;6876;50.788;4.940;2023-05-29T11:17:28;23.30;43.50
13610;DHT22;6876;50.788;4.940;2023-05-29T11:20:37;22.70;44.70
13610;DHT22;6876;50.788;4.940;2023-05-29T11:23:24;23.00;49.70
13610;DHT22;6876;50.788;4.940;2023-05-29T11:26:16;23.10;74.50
13610;DHT22;6876;50.788;4.940;2023-05-29T11:29:04;23.30;50.40
13610;DHT22;6876;50.788;4.940;2023-05-29T11:31:59;23.50;49.40
13610;DHT22;6876;50.788;4.940;2023-05-29T11:34:52;23.20;45.70
13610;DHT22;6876;50.788;4.940;2023-05-29T11:37:42;22.90;49.80
13610;DHT22;6876;50.788;4.940;2023-05-29T11:40:35;22.90;48.90
13610;DHT22;6876;50.788;4.940;2023-05-29T11:43:24;22.90;43.30
13610;DHT22;6876;50.788;4.940;2023-05-29T11:46:17;23.00;50.50
13610;DHT22;6876;50.788;4.940;2023-05-29T11:49:06;23.10;49.60
13610;DHT22;6876;50.788;4.940;2023-05-29T11:52:06;23.00;52.00
13610;DHT22;6876;50.788;4.940;2023-05-29T11:55:06;23.30;52.10
13610;DHT22;6876;50.788;4.940;2023-05-29T11:57:57;22.90;51.30
13610;DHT22;6876;50.788;4.940;2023-05-29T12:00:50;23.10;52.00
13610;DHT22;6876;50.788;4.940;2023-05-29T12:03:39;23.10;52.20
13610;DHT22;6876;50.788;4.940;2023-05-29T12:06:34;23.20;52.90
13610;DHT22;6876;50.788;4.940;2023-05-29T12:09:25;23.30;53.50
13610;DHT22;6876;50.788;4.940;2023-05-29T12:12:14;23.20;50.90
13610;DHT22;6876;50.788;4.940;2023-05-29T12:15:02;22.80;48.50
13610;DHT22;6876;50.788;4.940;2023-05-29T12:17:52;22.90;51.50
13610;DHT22;6876;50.788;4.940;2023-05-29T12:20:41;23.10;52.20
13610;DHT22;6876;50.788;4.940;2023-05-29T12:23:28;22.90;51.70
13610;DHT22;6876;50.788;4.940;2023-05-29T12:26:22;22.90;52.40
13610;DHT22;6876;50.788;4.940;2023-05-29T12:29:13;22.80;52.20
13610;DHT22;6876;50.788;4.940;2023-05-29T12:32:02;22.80;52.10
13610;DHT22;6876;50.788;4.940;2023-05-29T12:34:56;22.90;51.80
13610;DHT22;6876;50.788;4.940;2023-05-29T12:37:45;22.70;52.60
13610;DHT22;6876;50.788;4.940;2023-05-29T12:40:34;22.90;52.60
13610;DHT22;6876;50.788;4.940;2023-05-29T12:43:24;23.40;52.80
13610;DHT22;6876;50.788;4.940;2023-05-29T12:46:11;23.20;54.10
13610;DHT22;6876;50.788;4.940;2023-05-29T12:49:11;23.20;53.60
13610;DHT22;6876;50.788;4.940;2023-05-29T12:52:05;23.10;52.80
13610;DHT22;6876;50.788;4.940;2023-05-29T12:54:56;23.20;52.70
13610;DHT22;6876;50.788;4.940;2023-05-29T12:57:44;23.40;53.10
13610;DHT22;6876;50.788;4.940;2023-05-29T13:00:37;23.40;53.00
13610;DHT22;6876;50.788;4.940;2023-05-29T13:03:27;23.40;54.50
13610;DHT22;6876;50.788;4.940;2023-05-29T13:06:16;23.60;51.70
13610;DHT22;6876;50.788;4.940;2023-05-29T13:09:05;23.60;49.10
13610;DHT22;6876;50.788;4.940;2023-05-29T13:11:54;23.40;51.40
13610;DHT22;6876;50.788;4.940;2023-05-29T13:14:41;23.40;47.10
13610;DHT22;6876;50.788;4.940;2023-05-29T13:17:34;23.40;50.50
13610;DHT22;6876;50.788;4.940;2023-05-29T13:20:29;23.20;41.80
13610;DHT22;6876;50.788;4.940;2023-05-29T13:23:18;23.30;49.60
13610;DHT22;6876;50.788;4.940;2023-05-29T13:26:06;23.20;47.10
13610;DHT22;6876;50.788;4.940;2023-05-29T13:28:54;23.20;49.10
13610;DHT22;6876;50.788;4.940;2023-05-29T13:31:46;23.30;48.30
13610;DHT22;6876;50.788;4.940;2023-05-29T13:34:34;23.30;49.60
13610;DHT22;6876;50.788;4.940;2023-05-29T13:37:22;23.10;38.20
13610;DHT22;6876;50.788;4.940;2023-05-29T13:40:10;23.00;40.30
13610;DHT22;6876;50.788;4.940;2023-05-29T13:42:59;23.00;33.40
13610;DHT22;6876;50.788;4.940;2023-05-29T13:45:46;22.80;58.00
13610;DHT22;6876;50.788;4.940;2023-05-29T13:48:33;22.40;25.50
13610;DHT22;6876;50.788;4.940;2023-05-29T13:51:22;22.60;69.80
13610;DHT22;6876;50.788;4.940;2023-05-29T13:54:09;22.80;31.30
13610;DHT22;6876;50.788;4.940;2023-05-29T13:56:56;22.40;37.50
13610;DHT22;6876;50.788;4.940;2023-05-29T13:59:44;22.50;32.40
13610;DHT22;6876;50.788;4.940;2023-05-29T14:02:33;22.60;38.70
13610;DHT22;6876;50.788;4.940;2023-05-29T14:05:23;22.60;36.40
13610;DHT22;6876;50.788;4.940;2023-05-29T14:08:18;22.60;48.20
13610;DHT22;6876;50.788;4.940;2023-05-29T14:11:11;22.80;49.00
13610;DHT22;6876;50.788;4.940;2023-05-29T14:13:58;22.90;23.70
13610;DHT22;6876;50.788;4.940;2023-05-29T14:16:47;22.70;18.40
13610;DHT22;6876;50.788;4.940;2023-05-29T14:19:35;22.60;15.40
13610;DHT22;6876;50.788;4.940;2023-05-29T14:22:31;22.70;27.40
13610;DHT22;6876;50.788;4.940;2023-05-29T14:25:24;22.90;22.50
13610;DHT22;6876;50.788;4.940;2023-05-29T14:28:12;22.70;17.60
13610;DHT22;6876;50.788;4.940;2023-05-29T14:31:01;22.40;17.20
13610;DHT22;6876;50.788;4.940;2023-05-29T14:33:51;22.30;13.50
13610;DHT22;6876;50.788;4.940;2023-05-29T14:36:39;22.60;26.00
13610;DHT22;6876;50.788;4.940;2023-05-29T14:39:30;22.50;29.50
13610;DHT22;6876;50.788;4.940;2023-05-29T14:42:19;22.60;19.60
13610;DHT22;6876;50.788;4.940;2023-05-29T14:45:09;22.60;18.60
13610;DHT22;6876;50.788;4.940;2023-05-29T14:47:58;22.50;14.50
13610;DHT22;6876;50.788;4.940;2023-05-29T14:50:51;22.50;13.50
13610;DHT22;6876;50.788;4.940;2023-05-29T14:53:40;22.50;19.60
13610;DHT22;6876;50.788;4.940;2023-05-29T14:56:31;22.50;14.30
13610;DHT22;6876;50.788;4.940;2023-05-29T14:59:20;22.50;20.40
13610;DHT22;6876;50.788;4.940;2023-05-29T15:02:07;22.20;15.60
13610;DHT22;6876;50.788;4.940;2023-05-29T15:04:56;22.40;12.10
13610;DHT22;6876;50.788;4.940;2023-05-29T15:07:43;22.30;11.40
13610;DHT22;6876;50.788;4.940;2023-05-29T15:10:31;22.40;17.30
13610;DHT22;6876;50.788;4.940;2023-05-29T15:13:18;22.30;12.70
13610;DHT22;6876;50.788;4.940;2023-05-29T15:16:07;22.30;12.30
13610;DHT22;6876;50.788;4.940;2023-05-29T15:18:54;22.10;8.80
13610;DHT22;6876;50.788;4.940;2023-05-29T15:21:41;22.10;13.30
13610;DHT22;6876;50.788;4.940;2023-05-29T15:24:29;22.10;11.60
13610;DHT22;6876;50.788;4.940;2023-05-29T15:27:16;22.00;24.80
13610;DHT22;6876;50.788;4.940;2023-05-29T15:30:10;22.10;21.10
13610;DHT22;6876;50.788;4.940;2023-05-29T15:32:59;21.90;18.80
13610;DHT22;6876;50.788;4.940;2023-05-29T15:35:47;22.10;20.10
13610;DHT22;6876;50.788;4.940;2023-05-29T15:38:35;21.90;16.60
13610;DHT22;6876;50.788;4.940;2023-05-29T15:41:22;22.00;16.10
13610;DHT22;6876;50.788;4.940;2023-05-29T15:44:14;22.10;17.20
13610;DHT22;6876;50.788;4.940;2023-05-29T15:47:01;22.00;11.80
13610;DHT22;6876;50.788;4.940;2023-05-29T15:49:50;21.90;9.80
13610;DHT22;6876;50.788;4.940;2023-05-29T15:52:37;21.80;10.10
13610;DHT22;6876;50.788;4.940;2023-05-29T15:55:25;21.70;9.80
13610;DHT22;6876;50.788;4.940;2023-05-29T15:58:12;21.70;13.00
13610;DHT22;6876;50.788;4.940;2023-05-29T16:00:59;21.50;29.40
13610;DHT22;6876;50.788;4.940;2023-05-29T16:03:47;21.60;8.50
13610;DHT22;6876;50.788;4.940;2023-05-29T16:06:35;21.30;8.40
13610;DHT22;6876;50.788;4.940;2023-05-29T16:09:23;21.40;12.00
13610;DHT22;6876;50.788;4.940;2023-05-29T16:12:10;21.50;6.40
13610;DHT22;6876;50.788;4.940;2023-05-29T16:14:59;21.30;4.90
13610;DHT22;6876;50.788;4.940;2023-05-29T16:17:46;21.40;7.20
13610;DHT22;6876;50.788;4.940;2023-05-29T16:20:34;21.20;5.40
13610;DHT22;6876;50.788;4.940;2023-05-29T16:23:22;21.20;9.30
13610;DHT22;6876;50.788;4.940;2023-05-29T16:26:10;21.20;8.90
13610;DHT22;6876;50.788;4.940;2023-05-29T16:28:58;21.40;12.40
13610;DHT22;6876;50.788;4.940;2023-05-29T16:31:45;21.00;12.40
13610;DHT22;6876;50.788;4.940;2023-05-29T16:34:32;21.00;10.90
13610;DHT22;6876;50.788;4.940;2023-05-29T16:37:19;20.90;1.00
13610;DHT22;6876;50.788;4.940;2023-05-29T16:40:10;20.80;1.00
13610;DHT22;6876;50.788;4.940;2023-05-29T16:42:57;20.60;2.00
13610;DHT22;6876;50.788;4.940;2023-05-29T16:45:44;20.60;1.70
13610;DHT22;6876;50.788;4.940;2023-05-29T16:48:32;20.60;1.20
13610;DHT22;6876;50.788;4.940;2023-05-29T16:51:19;20.40;1.00
13610;DHT22;6876;50.788;4.940;2023-05-29T16:54:07;20.20;1.00
13610;DHT22;6876;50.788;4.940;2023-05-29T16:56:55;20.20;1.00
13610;DHT22;6876;50.788;4.940;2023-05-29T16:59:42;20.10;1.00
13610;DHT22;6876;50.788;4.940;2023-05-29T17:02:30;20.00;1.00
13610;DHT22;6876;50.788;4.940;2023-05-29T17:05:17;20.00;1.00
13610;DHT22;6876;50.788;4.940;2023-05-29T17:08:08;19.90;1.00
13610;DHT22;6876;50.788;4.940;2023-05-29T17:10:55;19.70;1.00
13610;DHT22;6876;50.788;4.940;2023-05-29T17:13:45;19.70;1.00
13610;DHT22;6876;50.788;4.940;2023-05-29T17:16:32;19.70;1.00
13610;DHT22;6876;50.788;4.940;2023-05-29T17:19:20;19.70;1.00
13610;DHT22;6876;50.788;4.940;2023-05-29T17:22:07;19.60;8.30
13610;DHT22;6876;50.788;4.940;2023-05-29T17:24:54;19.50;1.00
13610;DHT22;6876;50.788;4.940;2023-05-29T17:27:42;19.60;1.00
13610;DHT22;6876;50.788;4.940;2023-05-29T17:30:31;19.60;1.00
13610;DHT22;6876;50.788;4.940;2023-05-29T17:33:19;19.60;1.00
13610;DHT22;6876;50.788;4.940;2023-05-29T17:36:07;19.50;1.00
13610;DHT22;6876;50.788;4.940;2023-05-29T17:38:54;19.60;1.00
13610;DHT22;6876;50.788;4.940;2023-05-29T17:41:41;19.50;1.00
13610;DHT22;6876;50.788;4.940;2023-05-29T17:44:28;19.40;1.00
13610;DHT22;6876;50.788;4.940;2023-05-29T17:47:17;19.40;1.00
13610;DHT22;6876;50.788;4.940;2023-05-29T17:50:05;19.40;1.00
13610;DHT22;6876;50.788;4.940;2023-05-29T17:52:52;19.40;1.00
13610;DHT22;6876;50.788;4.940;2023-05-29T17:55:40;19.30;1.00
13610;DHT22;6876;50.788;4.940;2023-05-29T17:58:29;19.20;1.00
13610;DHT22;6876;50.788;4.940;2023-05-29T18:01:17;19.20;1.00
13610;DHT22;6876;50.788;4.940;2023-05-29T18:04:05;19.20;1.00
13610;DHT22;6876;50.788;4.940;2023-05-29T18:06:52;19.20;1.00
13610;DHT22;6876;50.788;4.940;2023-05-29T18:09:40;19.10;1.00